Time;durP1;ratioP1;P1;durP2;ratioP2;P2;SDS_P1;SDS_P2;PMS_P1;PMS_P2;Temp;Humidity;BMP_temperature;BMP_pressure;BME280_temperature;BME280_humidity;BME280_pressure;Samples;Min_cycle;Max_cycle;Signal;HPM_P1;HPM_P2
2023/05/12 00:01:52;;;;;;;5.20;4.00;;;13.50;99.90;;;;;;5116166;28;20019;-69
2023/05/12 00:04:17;;;;;;;6.60;4.20;;;13.40;99.90;;;;;;5115816;28;20098;-69
2023/05/12 00:06:43;;;;;;;5.80;4.28;;;13.40;99.90;;;;;;5113651;28;20032;-69
2023/05/12 00:09:09;;;;;;;4.93;4.25;;;13.30;99.90;;;;;;5115738;28;20027;-69
2023/05/12 00:11:36;;;;;;;6.80;4.50;;;13.30;99.90;;;;;;5115588;28;20055;-69
2023/05/12 00:14:02;;;;;;;6.43;4.18;;;13.30;99.90;;;;;;5115859;28;20161;-69
2023/05/12 00:16:28;;;;;;;5.70;4.22;;;13.30;99.90;;;;;;5115776;28;20051;-69
2023/05/12 00:18:53;;;;;;;5.88;4.00;;;13.20;99.90;;;;;;5115455;28;20092;-69
2023/05/12 00:21:19;;;;;;;6.78;5.22;;;13.20;99.90;;;;;;5115342;28;20043;-69
2023/05/12 00:23:45;;;;;;;6.50;4.35;;;13.20;99.90;;;;;;5115650;28;20026;-69
2023/05/12 00:26:10;;;;;;;7.35;4.90;;;13.20;99.90;;;;;;5115639;28;20387;-68
2023/05/12 00:28:36;;;;;;;6.68;4.70;;;13.20;99.90;;;;;;5114979;28;20383;-69
2023/05/12 00:31:02;;;;;;;6.85;5.00;;;13.20;99.90;;;;;;5115615;28;20028;-69
2023/05/12 00:33:29;;;;;;;4.65;4.20;;;13.20;99.90;;;;;;5115190;28;20032;-69
2023/05/12 00:35:55;;;;;;;8.63;4.90;;;13.20;99.90;;;;;;5115261;28;20066;-69
2023/05/12 00:38:20;;;;;;;7.57;4.70;;;13.20;99.90;;;;;;5115093;28;20027;-70
2023/05/12 00:40:46;;;;;;;9.93;5.25;;;13.20;99.90;;;;;;5115503;28;20032;-68
2023/05/12 00:43:11;;;;;;;6.53;4.90;;;13.20;99.90;;;;;;5115664;28;20070;-68
2023/05/12 00:45:37;;;;;;;6.35;4.55;;;13.10;99.90;;;;;;5114456;28;20047;-68
2023/05/12 00:48:05;;;;;;;6.05;4.82;;;13.10;99.90;;;;;;5114973;28;20387;-68
2023/05/12 00:50:31;;;;;;;6.35;4.63;;;13.10;99.90;;;;;;5114716;28;20016;-69
2023/05/12 00:52:59;;;;;;;6.63;5.45;;;13.10;99.90;;;;;;5115226;28;20031;-68
2023/05/12 00:55:25;;;;;;;6.65;4.57;;;13.10;99.90;;;;;;5114691;28;20072;-69
2023/05/12 00:57:51;;;;;;;8.73;4.75;;;13.10;99.90;;;;;;5114749;28;20539;-68
2023/05/12 01:00:17;;;;;;;6.65;4.72;;;13.10;99.90;;;;;;5114262;28;20162;-70
2023/05/12 01:02:44;;;;;;;6.13;4.80;;;13.10;99.90;;;;;;5115023;28;20107;-69
2023/05/12 01:05:10;;;;;;;6.32;5.20;;;13.10;99.90;;;;;;5114852;28;20038;-69
2023/05/12 01:07:38;;;;;;;6.95;5.43;;;13.10;99.90;;;;;;5114709;28;20034;-68
2023/05/12 01:10:15;;;;;;;5.97;5.20;;;13.10;99.90;;;;;;5114844;28;20483;-68
2023/05/12 01:12:40;;;;;;;7.57;5.15;;;13.00;99.90;;;;;;5113055;28;20027;-68
2023/05/12 01:15:06;;;;;;;6.72;4.85;;;13.00;99.90;;;;;;5114738;28;20030;-69
2023/05/12 01:17:34;;;;;;;7.63;5.28;;;13.10;99.90;;;;;;5113872;28;20456;-69
2023/05/12 01:20:03;;;;;;;6.57;5.47;;;13.10;99.90;;;;;;5113313;28;20118;-68
2023/05/12 01:22:30;;;;;;;6.05;5.07;;;13.00;99.90;;;;;;5112881;28;20681;-69
2023/05/12 01:25:04;;;;;;;9.02;5.55;;;13.00;99.90;;;;;;5114574;28;20036;-68
2023/05/12 01:27:31;;;;;;;6.47;5.38;;;13.00;99.90;;;;;;5113831;28;20033;-68
2023/05/12 01:29:59;;;;;;;7.82;5.75;;;13.00;99.90;;;;;;5113563;28;20092;-68
2023/05/12 01:32:25;;;;;;;9.90;6.55;;;13.00;99.90;;;;;;5113628;28;20076;-69
2023/05/12 01:34:51;;;;;;;7.80;6.20;;;12.90;99.90;;;;;;5114320;28;20034;-69
2023/05/12 01:37:17;;;;;;;6.90;5.95;;;12.90;99.90;;;;;;5114279;28;20094;-69
2023/05/12 01:39:43;;;;;;;6.53;5.80;;;12.90;99.90;;;;;;5113492;28;20050;-69
2023/05/12 01:42:09;;;;;;;6.32;5.72;;;12.80;99.90;;;;;;5113876;27;20024;-69
2023/05/12 01:44:35;;;;;;;11.48;6.50;;;12.80;99.90;;;;;;5113446;28;20071;-69
2023/05/12 01:47:00;;;;;;;10.98;6.22;;;12.80;99.90;;;;;;5114009;28;20114;-68
2023/05/12 01:49:26;;;;;;;8.85;6.60;;;12.70;99.90;;;;;;5113566;28;20055;-69
2023/05/12 01:51:52;;;;;;;11.07;6.93;;;12.80;99.90;;;;;;5113737;28;20086;-69
2023/05/12 01:54:18;;;;;;;8.95;6.72;;;12.80;99.90;;;;;;5114296;28;20032;-69
2023/05/12 01:56:43;;;;;;;6.93;6.20;;;12.80;99.90;;;;;;5113467;28;20024;-69
2023/05/12 01:59:09;;;;;;;8.55;5.57;;;12.80;99.90;;;;;;5113865;28;20027;-69
2023/05/12 02:01:35;;;;;;;7.75;6.18;;;12.70;99.90;;;;;;5113183;28;20468;-69
2023/05/12 02:04:03;;;;;;;7.50;6.47;;;12.70;99.90;;;;;;5113675;28;20533;-69
2023/05/12 02:06:30;;;;;;;7.55;6.65;;;12.60;99.90;;;;;;5113232;28;20073;-69
2023/05/12 02:08:56;;;;;;;9.38;7.22;;;12.60;99.90;;;;;;5113472;28;20031;-69
2023/05/12 02:11:22;;;;;;;9.20;7.72;;;12.60;99.90;;;;;;5113192;28;20028;-71
2023/05/12 02:13:47;;;;;;;9.57;8.45;;;12.60;99.90;;;;;;5113660;28;20039;-69
2023/05/12 02:16:13;;;;;;;9.57;8.57;;;12.50;99.90;;;;;;5113626;28;20024;-68
2023/05/12 02:18:39;;;;;;;10.70;8.77;;;12.60;99.90;;;;;;5112818;28;20434;-68
2023/05/12 02:21:05;;;;;;;10.02;8.32;;;12.50;99.90;;;;;;5113443;28;20090;-69
2023/05/12 02:23:31;;;;;;;10.68;8.90;;;12.50;99.90;;;;;;5113017;28;20022;-69
2023/05/12 02:25:56;;;;;;;9.63;8.45;;;12.50;99.90;;;;;;5113150;28;20036;-68
2023/05/12 02:28:22;;;;;;;10.35;8.68;;;12.50;99.90;;;;;;5113436;28;20059;-76
2023/05/12 02:30:49;;;;;;;8.77;7.35;;;12.50;99.90;;;;;;5113416;28;20028;-68
2023/05/12 02:33:16;;;;;;;11.02;7.68;;;12.50;99.90;;;;;;5113021;28;20483;-68
2023/05/12 02:35:45;;;;;;;9.52;7.68;;;12.50;99.90;;;;;;5112662;28;20031;-68
2023/05/12 02:38:12;;;;;;;10.38;7.13;;;12.50;99.90;;;;;;5113254;28;20034;-68
2023/05/12 02:40:38;;;;;;;8.50;7.50;;;12.50;99.90;;;;;;5112745;28;20023;-68
2023/05/12 02:43:03;;;;;;;8.00;7.10;;;12.50;99.90;;;;;;5113530;28;20046;-68
2023/05/12 02:45:29;;;;;;;7.25;6.22;;;12.50;99.90;;;;;;5112196;28;20389;-68
2023/05/12 02:47:55;;;;;;;10.48;7.07;;;12.40;99.90;;;;;;5113133;28;20053;-68
2023/05/12 02:50:20;;;;;;;9.52;7.15;;;12.40;99.90;;;;;;5113120;28;20020;-69
2023/05/12 02:52:47;;;;;;;10.60;6.95;;;12.30;99.90;;;;;;5112443;28;20376;-69
2023/05/12 02:55:12;;;;;;;11.07;8.07;;;12.30;99.90;;;;;;5112914;28;20484;-69
2023/05/12 02:57:38;;;;;;;9.32;7.97;;;12.30;99.90;;;;;;5112712;28;20027;-69
2023/05/12 03:00:05;;;;;;;10.23;8.93;;;12.30;99.90;;;;;;5113075;28;20346;-68
2023/05/12 03:02:38;;;;;;;9.90;8.52;;;12.30;99.90;;;;;;5112470;28;20035;-69
2023/05/12 03:05:04;;;;;;;10.93;8.80;;;12.30;99.90;;;;;;5113130;28;20038;-68
2023/05/12 03:07:30;;;;;;;11.77;10.07;;;12.20;99.90;;;;;;5112251;28;20126;-68
2023/05/12 03:09:57;;;;;;;11.15;10.02;;;12.20;99.90;;;;;;5112941;28;20023;-68
2023/05/12 03:12:23;;;;;;;11.65;10.43;;;12.20;99.90;;;;;;5112901;28;20032;-68
2023/05/12 03:14:48;;;;;;;11.95;9.90;;;12.10;99.90;;;;;;5112817;28;20023;-68
2023/05/12 03:17:14;;;;;;;15.60;9.77;;;12.10;99.90;;;;;;5112583;28;20380;-68
2023/05/12 03:19:40;;;;;;;13.75;10.68;;;12.10;99.90;;;;;;5112490;28;20035;-68
2023/05/12 03:22:08;;;;;;;14.13;9.95;;;12.10;99.90;;;;;;5112664;28;20030;-69
2023/05/12 03:24:34;;;;;;;11.88;10.68;;;12.10;99.90;;;;;;5112028;28;20380;-69
2023/05/12 03:27:00;;;;;;;12.35;11.05;;;12.10;99.90;;;;;;5112798;28;20024;-69
2023/05/12 03:29:25;;;;;;;12.35;10.57;;;12.00;99.90;;;;;;5112456;28;20361;-69
2023/05/12 03:31:51;;;;;;;12.35;11.13;;;12.00;99.90;;;;;;5112375;28;20030;-69
2023/05/12 03:34:17;;;;;;;12.10;10.65;;;12.10;99.90;;;;;;5112444;28;20028;-69
2023/05/12 03:36:43;;;;;;;11.93;10.70;;;12.10;99.90;;;;;;5112092;28;20027;-69
2023/05/12 03:39:09;;;;;;;12.52;10.85;;;12.00;99.90;;;;;;5112765;28;20375;-69
2023/05/12 03:41:35;;;;;;;12.88;11.00;;;12.00;99.90;;;;;;5112287;28;20387;-70
2023/05/12 03:44:01;;;;;;;15.25;10.70;;;12.00;99.90;;;;;;5112429;28;20110;-69
2023/05/12 03:46:27;;;;;;;12.18;9.93;;;12.00;99.90;;;;;;5112233;28;20456;-69
2023/05/12 03:48:53;;;;;;;12.68;10.18;;;12.00;99.90;;;;;;5112362;28;20063;-69
2023/05/12 03:51:18;;;;;;;11.05;9.85;;;12.00;99.90;;;;;;5112202;28;20028;-69
2023/05/12 03:53:46;;;;;;;12.35;9.65;;;12.00;99.90;;;;;;5114996;28;20449;-69
2023/05/12 03:56:12;;;;;;;12.00;9.75;;;12.00;99.90;;;;;;5116193;27;20481;-68
2023/05/12 03:58:38;;;;;;;9.55;8.18;;;11.90;99.90;;;;;;5115752;28;20028;-69
2023/05/12 04:01:04;;;;;;;12.70;8.35;;;11.90;99.90;;;;;;5116051;28;20030;-69
2023/05/12 04:03:30;;;;;;;9.77;8.77;;;11.90;99.90;;;;;;5115949;28;20379;-73
2023/05/12 04:05:59;;;;;;;11.35;9.07;;;12.00;99.90;;;;;;5114447;28;20035;-70
2023/05/12 04:08:26;;;;;;;10.90;9.20;;;12.00;99.90;;;;;;5114946;28;20081;-68
2023/05/12 04:10:54;;;;;;;10.10;8.70;;;12.00;99.90;;;;;;5115504;28;20452;-69
2023/05/12 04:13:20;;;;;;;11.93;8.95;;;12.00;99.90;;;;;;5115939;28;20425;-67
2023/05/12 04:15:46;;;;;;;10.07;8.60;;;12.00;99.90;;;;;;5115543;28;20073;-67
2023/05/12 04:18:12;;;;;;;10.05;8.93;;;12.00;99.90;;;;;;5116056;28;20521;-68
2023/05/12 04:20:38;;;;;;;9.45;8.13;;;11.90;99.90;;;;;;5115394;28;20102;-68
2023/05/12 04:23:03;;;;;;;13.27;8.55;;;11.90;99.90;;;;;;5115447;28;20475;-68
2023/05/12 04:25:29;;;;;;;9.70;7.97;;;12.00;99.90;;;;;;5115572;28;20036;-68
2023/05/12 04:27:54;;;;;;;9.10;8.07;;;12.00;99.90;;;;;;5115283;28;20023;-68
2023/05/12 04:30:20;;;;;;;9.85;8.85;;;11.90;99.90;;;;;;5115519;28;20027;-68
2023/05/12 04:32:47;;;;;;;7.95;7.18;;;11.90;99.90;;;;;;5114806;28;20026;-68
2023/05/12 04:35:13;;;;;;;11.75;8.30;;;11.90;99.90;;;;;;5115692;28;20028;-69
2023/05/12 04:37:39;;;;;;;8.90;7.78;;;11.90;99.90;;;;;;5114842;28;20027;-69
2023/05/12 04:40:06;;;;;;;11.48;8.35;;;11.90;99.90;;;;;;5114012;28;20478;-68
2023/05/12 04:42:32;;;;;;;8.48;7.53;;;11.90;99.90;;;;;;5115308;28;20068;-76
2023/05/12 04:44:57;;;;;;;10.20;6.95;;;11.90;99.90;;;;;;5114741;28;20134;-68
2023/05/12 04:47:23;;;;;;;9.73;7.72;;;11.90;99.90;;;;;;5115237;28;20026;-68
2023/05/12 04:49:49;;;;;;;8.68;7.65;;;11.80;99.90;;;;;;5114771;28;20527;-70
2023/05/12 04:52:14;;;;;;;11.50;7.47;;;11.90;99.90;;;;;;5114513;28;20015;-69
2023/05/12 04:54:40;;;;;;;10.15;7.60;;;11.80;99.90;;;;;;5115018;28;20114;-68
2023/05/12 04:57:05;;;;;;;8.73;7.82;;;11.80;99.90;;;;;;5113642;28;20130;-67
2023/05/12 04:59:31;;;;;;;8.15;7.35;;;11.80;99.90;;;;;;5115073;28;20430;-69
2023/05/12 05:01:57;;;;;;;9.02;7.45;;;11.80;99.90;;;;;;5114571;28;20030;-69
2023/05/12 05:04:22;;;;;;;11.13;7.03;;;11.80;99.90;;;;;;5114693;28;20115;-69
2023/05/12 05:06:48;;;;;;;8.35;6.80;;;11.80;99.90;;;;;;5114354;28;20036;-70
2023/05/12 05:09:13;;;;;;;8.50;7.53;;;11.80;99.90;;;;;;5114750;28;20070;-69
2023/05/12 05:11:39;;;;;;;10.77;7.28;;;11.80;99.90;;;;;;5114826;28;20447;-70
2023/05/12 05:14:05;;;;;;;7.13;6.30;;;11.80;99.90;;;;;;5114874;28;20024;-69
2023/05/12 05:16:30;;;;;;;8.10;7.18;;;11.80;99.90;;;;;;5114736;28;20032;-69
2023/05/12 05:18:56;;;;;;;8.48;6.82;;;11.80;99.90;;;;;;5114168;28;20375;-69
2023/05/12 05:21:22;;;;;;;10.52;7.63;;;11.80;99.90;;;;;;5114308;28;20024;-69
2023/05/12 05:23:47;;;;;;;7.03;6.13;;;11.80;99.90;;;;;;5114058;28;20102;-69
2023/05/12 05:26:13;;;;;;;12.35;6.88;;;11.80;99.90;;;;;;5114067;28;20495;-69
2023/05/12 05:28:39;;;;;;;11.52;7.18;;;11.90;99.90;;;;;;5113969;28;20035;-70
2023/05/12 05:31:05;;;;;;;7.60;6.80;;;11.90;99.90;;;;;;5114591;28;20035;-69
2023/05/12 05:33:31;;;;;;;7.75;6.20;;;11.90;99.90;;;;;;5114622;28;20031;-69
2023/05/12 05:35:57;;;;;;;8.88;6.68;;;11.90;99.90;;;;;;5113772;28;20031;-69
2023/05/12 05:38:22;;;;;;;7.72;6.55;;;11.90;99.90;;;;;;5114230;28;20022;-69
2023/05/12 05:40:48;;;;;;;11.75;6.35;;;11.90;99.90;;;;;;5113904;28;20446;-70
2023/05/12 05:43:14;;;;;;;8.30;5.97;;;11.90;99.90;;;;;;5114193;28;20053;-69
2023/05/12 05:45:39;;;;;;;9.32;6.45;;;11.90;99.90;;;;;;5113101;28;20048;-70
2023/05/12 05:48:05;;;;;;;9.32;6.20;;;11.90;99.90;;;;;;5114203;28;20059;-69
2023/05/12 05:50:31;;;;;;;7.72;6.00;;;11.90;99.90;;;;;;5113917;28;20122;-69
2023/05/12 05:52:57;;;;;;;8.48;6.07;;;11.90;99.90;;;;;;5113263;28;20480;-69
2023/05/12 05:55:22;;;;;;;6.85;5.68;;;11.90;99.90;;;;;;5113812;28;20058;-69
2023/05/12 05:57:48;;;;;;;7.68;6.00;;;11.90;99.90;;;;;;5113023;28;20031;-70
2023/05/12 06:00:14;;;;;;;8.05;5.88;;;11.90;99.90;;;;;;5113764;28;20032;-69
2023/05/12 06:02:40;;;;;;;6.68;5.57;;;12.00;99.90;;;;;;5113507;28;20024;-70
2023/05/12 06:05:07;;;;;;;7.55;5.55;;;12.00;99.90;;;;;;5113576;28;20031;-69
2023/05/12 06:07:33;;;;;;;11.48;5.68;;;11.90;99.90;;;;;;5113437;28;20403;-69
2023/05/12 06:09:58;;;;;;;5.93;5.30;;;11.90;99.90;;;;;;5113027;28;20224;-69
2023/05/12 06:12:24;;;;;;;8.65;5.18;;;11.90;99.90;;;;;;5113782;28;20035;-69
2023/05/12 06:14:50;;;;;;;8.27;5.63;;;11.90;99.90;;;;;;5112959;28;20384;-69
2023/05/12 06:17:16;;;;;;;6.03;5.32;;;11.90;99.90;;;;;;5112898;28;20039;-69
2023/05/12 06:19:46;;;;;;;9.23;5.60;;;11.80;99.90;;;;;;5111964;28;20080;-70
2023/05/12 06:22:12;;;;;;;6.68;5.05;;;11.80;99.90;;;;;;5113085;28;20102;-70
2023/05/12 06:24:38;;;;;;;6.25;5.20;;;11.90;99.90;;;;;;5113355;28;20034;-70
2023/05/12 06:27:04;;;;;;;10.65;5.10;;;11.80;99.90;;;;;;5112706;28;20370;-68
2023/05/12 06:29:29;;;;;;;9.52;5.30;;;11.80;99.90;;;;;;5113334;28;20111;-69
2023/05/12 06:31:55;;;;;;;7.18;5.45;;;11.90;99.90;;;;;;5112901;28;20463;-70
2023/05/12 06:34:21;;;;;;;6.30;5.30;;;11.80;99.90;;;;;;5113317;28;20027;-69
2023/05/12 06:36:46;;;;;;;5.15;4.55;;;11.90;99.90;;;;;;5112929;28;20034;-69
2023/05/12 06:39:12;;;;;;;8.48;5.22;;;11.90;99.90;;;;;;5111869;28;20055;-69
2023/05/12 06:41:38;;;;;;;9.30;5.43;;;11.80;99.90;;;;;;5112845;28;20104;-70
2023/05/12 06:44:05;;;;;;;7.05;5.75;;;11.90;99.90;;;;;;5111290;28;20024;-69
2023/05/12 06:46:31;;;;;;;5.75;5.00;;;11.90;99.90;;;;;;5113008;28;20073;-69
2023/05/12 06:48:57;;;;;;;6.78;5.03;;;11.90;99.90;;;;;;5112686;28;20016;-70
2023/05/12 06:51:22;;;;;;;8.73;5.28;;;11.90;99.90;;;;;;5112834;28;20460;-70
2023/05/12 06:53:48;;;;;;;7.22;4.95;;;11.90;99.90;;;;;;5112562;28;20031;-69
2023/05/12 06:56:15;;;;;;;7.15;5.15;;;11.90;99.90;;;;;;5112595;28;20028;-73
2023/05/12 06:58:45;;;;;;;5.13;4.35;;;11.90;99.90;;;;;;5112718;28;20109;-69
2023/05/12 07:01:10;;;;;;;8.50;5.20;;;11.90;99.90;;;;;;5112747;28;20030;-69
2023/05/12 07:03:36;;;;;;;6.15;5.32;;;12.00;99.90;;;;;;5112662;28;20378;-69
2023/05/12 07:06:02;;;;;;;5.55;4.38;;;12.00;99.90;;;;;;5112352;28;20109;-69
2023/05/12 07:08:28;;;;;;;7.20;4.65;;;12.00;99.90;;;;;;5113102;28;20119;-69
2023/05/12 07:10:53;;;;;;;5.93;4.82;;;12.00;99.90;;;;;;5112485;28;20348;-70
2023/05/12 07:13:19;;;;;;;6.40;4.50;;;12.00;99.90;;;;;;5112884;28;20061;-70
2023/05/12 07:15:44;;;;;;;6.38;4.57;;;12.00;99.90;;;;;;5112535;28;20034;-70
2023/05/12 07:18:10;;;;;;;4.60;4.00;;;11.90;99.90;;;;;;5112874;28;20023;-69
2023/05/12 07:20:37;;;;;;;6.35;4.20;;;11.90;99.90;;;;;;5112580;28;20058;-69
2023/05/12 07:23:03;;;;;;;4.40;4.00;;;11.90;99.90;;;;;;5112291;28;20024;-70
2023/05/12 07:25:29;;;;;;;6.60;4.38;;;12.00;99.90;;;;;;5112721;28;20036;-69
2023/05/12 07:27:54;;;;;;;6.97;4.63;;;11.90;99.90;;;;;;5113979;28;20444;-69
2023/05/12 07:30:21;;;;;;;4.85;4.22;;;12.00;99.90;;;;;;5116561;28;20046;-69
2023/05/12 07:32:46;;;;;;;4.68;4.28;;;12.00;99.90;;;;;;5149430;27;20024;-69
2023/05/12 07:35:12;;;;;;;7.45;4.75;;;12.00;99.90;;;;;;5116419;28;20068;-68
2023/05/12 07:37:38;;;;;;;5.32;4.43;;;12.00;99.90;;;;;;5116746;28;20023;-68
2023/05/12 07:40:04;;;;;;;7.85;3.97;;;12.00;99.90;;;;;;5116235;28;20027;-69
2023/05/12 07:42:30;;;;;;;4.60;4.13;;;11.90;99.90;;;;;;5116539;28;20031;-69
2023/05/12 07:44:55;;;;;;;5.70;4.43;;;11.90;99.90;;;;;;5114340;28;20070;-69
2023/05/12 07:47:21;;;;;;;4.75;4.18;;;11.90;99.90;;;;;;5115823;28;20054;-68
2023/05/12 07:49:46;;;;;;;5.53;4.95;;;12.00;99.90;;;;;;5115957;28;20055;-70
2023/05/12 07:52:12;;;;;;;4.95;4.18;;;12.00;99.90;;;;;;5116228;28;20024;-69
2023/05/12 07:54:38;;;;;;;10.15;5.00;;;12.00;99.90;;;;;;5116739;28;20067;-69
2023/05/12 07:57:03;;;;;;;5.63;4.45;;;12.00;99.90;;;;;;5115611;28;20019;-69
2023/05/12 07:59:29;;;;;;;7.05;4.85;;;12.10;99.90;;;;;;5115925;28;20533;-69
2023/05/12 08:01:55;;;;;;;8.18;4.72;;;12.10;99.90;;;;;;5115860;28;20019;-69
2023/05/12 08:04:21;;;;;;;6.75;5.18;;;12.00;99.90;;;;;;5115924;28;20019;-69
2023/05/12 08:06:46;;;;;;;6.60;4.93;;;12.00;99.90;;;;;;5114713;28;20031;-69
2023/05/12 08:09:12;;;;;;;5.90;4.80;;;12.00;99.90;;;;;;5115854;28;20035;-69
2023/05/12 08:11:38;;;;;;;5.18;4.65;;;12.00;99.90;;;;;;5115920;28;20567;-69
2023/05/12 08:14:04;;;;;;;7.00;4.70;;;12.00;99.90;;;;;;5115499;28;20114;-69
2023/05/12 08:16:30;;;;;;;5.88;4.78;;;12.00;99.90;;;;;;5115942;28;20478;-69
2023/05/12 08:18:56;;;;;;;6.93;5.18;;;12.00;99.90;;;;;;5114618;28;20035;-69
2023/05/12 08:21:21;;;;;;;6.28;4.75;;;12.00;99.90;;;;;;5115954;28;20023;-69
2023/05/12 08:23:47;;;;;;;5.43;4.93;;;12.10;99.90;;;;;;5115627;28;20430;-69
2023/05/12 08:26:12;;;;;;;5.85;4.82;;;12.10;99.90;;;;;;5115140;28;20037;-70
2023/05/12 08:28:38;;;;;;;8.10;4.93;;;12.10;99.90;;;;;;5115660;28;20063;-69
2023/05/12 08:31:04;;;;;;;7.60;5.53;;;12.10;99.90;;;;;;5115193;28;20117;-69
2023/05/12 08:33:29;;;;;;;7.38;5.68;;;12.10;99.90;;;;;;5115511;28;20019;-69
2023/05/12 08:35:55;;;;;;;7.72;5.75;;;12.10;99.90;;;;;;5115065;28;20456;-70
2023/05/12 08:38:21;;;;;;;6.05;4.43;;;12.10;99.90;;;;;;5115196;28;20162;-69
2023/05/12 08:41:08;;;;;;;5.22;4.68;;;12.10;99.90;;;;;;5115338;28;20298;-69
2023/05/12 08:43:43;;;;;;;7.75;5.22;;;12.20;99.90;;;;;;5115673;28;20047;-69
2023/05/12 08:46:10;;;;;;;6.13;4.65;;;12.20;99.90;;;;;;5115038;28;20047;-70
2023/05/12 08:48:38;;;;;;;5.07;4.55;;;12.20;99.90;;;;;;5114841;28;20034;-69
2023/05/12 08:51:09;;;;;;;6.70;5.18;;;12.20;99.90;;;;;;5114703;28;20051;-70
2023/05/12 08:53:36;;;;;;;6.18;4.90;;;12.20;99.90;;;;;;5115043;28;20031;-70
2023/05/12 08:56:05;;;;;;;8.55;4.80;;;12.20;99.90;;;;;;5114676;28;20035;-69
2023/05/12 08:58:31;;;;;;;5.95;4.43;;;12.20;99.90;;;;;;5115160;27;20035;-68
2023/05/12 09:00:59;;;;;;;7.22;4.10;;;12.20;99.90;;;;;;5114625;28;20019;-69
2023/05/12 09:03:27;;;;;;;6.05;4.78;;;12.20;99.90;;;;;;5114942;28;20027;-68
2023/05/12 09:05:55;;;;;;;5.85;4.55;;;12.20;99.90;;;;;;5114523;28;20058;-70
2023/05/12 09:08:21;;;;;;;5.97;4.32;;;12.20;99.90;;;;;;5114902;28;20020;-69
2023/05/12 09:10:47;;;;;;;7.57;4.78;;;12.20;99.90;;;;;;5115200;28;20015;-69
2023/05/12 09:13:19;;;;;;;5.70;4.60;;;12.10;99.90;;;;;;5114362;28;20053;-69
2023/05/12 09:15:47;;;;;;;6.43;5.20;;;12.10;99.90;;;;;;5114883;28;20027;-69
2023/05/12 09:18:12;;;;;;;7.68;5.00;;;12.10;99.90;;;;;;5114170;28;20035;-69
2023/05/12 09:20:38;;;;;;;5.85;4.53;;;12.10;99.90;;;;;;5114931;28;20040;-69
2023/05/12 09:23:13;;;;;;;11.18;5.00;;;12.10;99.90;;;;;;5114288;28;20019;-69
2023/05/12 09:25:39;;;;;;;7.18;5.00;;;12.20;99.90;;;;;;5114391;28;20414;-70
2023/05/12 09:28:04;;;;;;;4.88;4.43;;;12.20;99.90;;;;;;5114125;28;20024;-70
2023/05/12 09:30:34;;;;;;;5.82;3.97;;;12.20;99.90;;;;;;5114055;28;20062;-68
2023/05/12 09:33:25;;;;;;;8.27;4.85;;;12.20;99.90;;;;;;5113976;28;20024;-68
2023/05/12 09:35:52;;;;;;;5.85;4.28;;;12.30;99.90;;;;;;5143700;27;20032;-69
2023/05/12 09:38:17;;;;;;;7.75;5.00;;;12.30;99.90;;;;;;5113848;28;20048;-68
2023/05/12 09:40:44;;;;;;;5.28;4.13;;;12.40;99.90;;;;;;5114292;28;20016;-68
2023/05/12 09:43:10;;;;;;;6.75;4.25;;;12.40;99.90;;;;;;5113571;28;20027;-68
2023/05/12 09:45:42;;;;;;;6.20;4.55;;;12.30;99.90;;;;;;5113306;28;20048;-68
2023/05/12 09:48:10;;;;;;;5.68;4.40;;;12.30;99.90;;;;;;5113993;28;20051;-68
2023/05/12 09:50:47;;;;;;;10.13;4.70;;;12.30;99.90;;;;;;5113947;28;20114;-69
2023/05/12 09:53:13;;;;;;;6.80;4.78;;;12.30;99.90;;;;;;5115199;28;20024;-67
2023/05/12 09:55:42;;;;;;;7.38;4.78;;;12.20;99.90;;;;;;5114542;28;20033;-68
2023/05/12 09:58:09;;;;;;;6.35;5.70;;;12.20;99.90;;;;;;5113393;28;20027;-69
2023/05/12 10:00:37;;;;;;;5.72;5.10;;;12.20;99.90;;;;;;5113883;28;20031;-68
2023/05/12 10:03:11;;;;;;;6.03;5.43;;;12.20;99.90;;;;;;5113336;28;20128;-68
2023/05/12 10:05:45;;;;;;;7.65;5.60;;;12.10;99.90;;;;;;5113770;28;20039;-70
2023/05/12 10:08:18;;;;;;;7.15;5.15;;;12.10;99.90;;;;;;5113390;28;20035;-69
2023/05/12 10:10:47;;;;;;;9.65;5.13;;;12.20;99.90;;;;;;5113493;28;20472;-69
2023/05/12 10:13:13;;;;;;;5.32;4.82;;;12.20;99.90;;;;;;5113211;28;20460;-69
2023/05/12 10:15:40;;;;;;;6.88;4.35;;;12.20;99.90;;;;;;5113577;28;20069;-68
2023/05/12 10:18:06;;;;;;;7.20;4.72;;;12.20;99.90;;;;;;5112892;28;20032;-68
2023/05/12 10:20:33;;;;;;;5.97;3.88;;;12.20;99.90;;;;;;5113420;28;20076;-69
2023/05/12 10:23:00;;;;;;;5.47;4.50;;;12.20;99.90;;;;;;5112735;28;20065;-68
2023/05/12 10:25:27;;;;;;;3.80;3.30;;;12.30;99.90;;;;;;5113568;28;20384;-68
2023/05/12 10:27:54;;;;;;;5.22;4.00;;;12.30;99.90;;;;;;5112950;28;20139;-68
2023/05/12 10:30:21;;;;;;;4.60;4.07;;;12.30;99.90;;;;;;5112914;28;20031;-68
2023/05/12 10:32:47;;;;;;;4.55;3.67;;;12.30;99.90;;;;;;5113306;28;20023;-68
2023/05/12 10:35:14;;;;;;;4.28;3.78;;;12.30;99.90;;;;;;5112519;28;20031;-68
2023/05/12 10:37:41;;;;;;;4.78;3.63;;;12.30;99.90;;;;;;5113072;28;20472;-68
2023/05/12 10:40:09;;;;;;;4.40;3.90;;;12.40;99.90;;;;;;5112751;28;20028;-69
2023/05/12 10:42:42;;;;;;;3.63;3.28;;;12.40;99.90;;;;;;5113150;28;20114;-68
2023/05/12 10:45:19;;;;;;;4.47;3.00;;;12.40;99.90;;;;;;5112825;28;20527;-68
2023/05/12 10:47:45;;;;;;;3.90;3.03;;;12.40;99.90;;;;;;5112806;28;20035;-68
2023/05/12 10:50:12;;;;;;;4.18;3.50;;;12.40;99.90;;;;;;5112754;28;20110;-68
2023/05/12 10:52:39;;;;;;;4.90;3.25;;;12.50;99.90;;;;;;5113121;28;20047;-68
2023/05/12 10:55:11;;;;;;;4.57;2.88;;;12.50;99.90;;;;;;5112510;28;20038;-68
2023/05/12 10:57:48;;;;;;;4.60;3.10;;;12.50;99.90;;;;;;5112635;28;20032;-69
2023/05/12 11:00:14;;;;;;;4.63;3.35;;;12.50;99.90;;;;;;5112528;28;20077;-67
2023/05/12 11:02:49;;;;;;;3.25;2.70;;;12.50;99.90;;;;;;5116042;28;20031;-68
2023/05/12 11:05:15;;;;;;;5.10;3.13;;;12.50;99.90;;;;;;5116735;28;20080;-70
2023/05/12 11:07:47;;;;;;;4.05;3.00;;;12.50;99.90;;;;;;5117460;28;20024;-68
2023/05/12 11:10:13;;;;;;;4.63;3.03;;;12.40;99.90;;;;;;5116609;28;20043;-69
2023/05/12 11:12:41;;;;;;;4.20;2.90;;;12.50;99.90;;;;;;5117047;28;20464;-68
2023/05/12 11:15:07;;;;;;;4.78;3.13;;;12.40;99.90;;;;;;5116626;28;20118;-69
2023/05/12 11:17:33;;;;;;;5.70;3.20;;;12.40;99.90;;;;;;5116922;28;20130;-69
2023/05/12 11:19:59;;;;;;;6.78;3.97;;;12.40;99.90;;;;;;5116821;28;20024;-69
2023/05/12 11:22:25;;;;;;;5.20;3.47;;;12.40;99.90;;;;;;5116361;28;20110;-69
2023/05/12 11:24:51;;;;;;;4.75;4.03;;;12.40;99.90;;;;;;5116588;28;20108;-69
2023/05/12 11:27:19;;;;;;;4.70;3.92;;;12.50;99.90;;;;;;5116351;28;20024;-71
2023/05/12 11:29:58;;;;;;;7.75;4.32;;;12.50;99.90;;;;;;5116808;27;20098;-70
2023/05/12 11:32:24;;;;;;;4.78;4.20;;;12.50;99.90;;;;;;5116204;28;20030;-68
2023/05/12 11:34:49;;;;;;;5.95;4.05;;;12.50;99.90;;;;;;5116416;28;20028;-69
2023/05/12 11:37:19;;;;;;;4.38;3.80;;;12.50;99.90;;;;;;5116048;28;20115;-68
2023/05/12 11:39:45;;;;;;;6.13;4.05;;;12.50;99.90;;;;;;5116045;27;20031;-69
2023/05/12 11:42:10;;;;;;;4.32;3.65;;;12.50;99.90;;;;;;5115960;28;20020;-69
2023/05/12 11:44:45;;;;;;;4.88;4.05;;;12.40;99.90;;;;;;5116291;28;20373;-69
2023/05/12 11:47:12;;;;;;;4.45;4.00;;;12.40;99.90;;;;;;5114548;28;20067;-69
2023/05/12 11:49:52;;;;;;;6.00;4.20;;;12.40;99.90;;;;;;5116149;28;20031;-68
2023/05/12 11:52:19;;;;;;;4.90;4.40;;;12.40;99.90;;;;;;5115847;28;20115;-68
2023/05/12 11:54:56;;;;;;;7.82;4.13;;;12.40;99.90;;;;;;5116248;28;20083;-70
2023/05/12 11:57:28;;;;;;;7.38;4.10;;;12.40;99.90;;;;;;5115984;28;20031;-71
2023/05/12 12:00:02;;;;;;;6.03;4.10;;;12.30;99.90;;;;;;5115884;28;20038;-69
2023/05/12 12:02:28;;;;;;;6.05;4.22;;;12.30;99.90;;;;;;5115943;28;20354;-69
2023/05/12 12:04:54;;;;;;;6.35;4.72;;;12.30;99.90;;;;;;5116108;28;20081;-68
2023/05/12 12:07:33;;;;;;;5.78;4.47;;;12.30;99.90;;;;;;5115380;28;20020;-69
2023/05/12 12:10:15;;;;;;;7.25;4.53;;;12.30;99.90;;;;;;5115916;28;20039;-69
2023/05/12 12:12:41;;;;;;;6.68;4.40;;;12.20;99.90;;;;;;5115811;28;20031;-69
2023/05/12 12:15:08;;;;;;;7.72;4.80;;;12.20;99.90;;;;;;5115213;28;20123;-70
2023/05/12 12:17:34;;;;;;;7.72;4.45;;;12.20;99.90;;;;;;5115740;28;20039;-69
2023/05/12 12:20:00;;;;;;;6.45;4.07;;;12.20;99.90;;;;;;5115904;28;20028;-70
2023/05/12 12:22:25;;;;;;;4.82;3.95;;;12.20;99.90;;;;;;5115219;28;20373;-68
2023/05/12 12:24:51;;;;;;;4.22;3.80;;;12.20;99.90;;;;;;5115622;28;20027;-68
2023/05/12 12:27:17;;;;;;;5.25;4.30;;;12.20;99.90;;;;;;5115150;28;20506;-69
2023/05/12 12:29:42;;;;;;;5.05;4.10;;;12.10;99.90;;;;;;5115381;28;20027;-69
2023/05/12 12:32:08;;;;;;;5.30;3.92;;;12.20;99.90;;;;;;5115344;28;20023;-69
2023/05/12 12:34:34;;;;;;;5.60;4.15;;;12.20;99.90;;;;;;5114997;28;20106;-69
2023/05/12 12:36:59;;;;;;;4.20;3.70;;;12.20;99.90;;;;;;5115359;28;20036;-69
2023/05/12 12:39:25;;;;;;;4.57;4.18;;;12.20;99.90;;;;;;5115092;28;20476;-69
2023/05/12 12:41:52;;;;;;;13.05;4.40;;;12.10;99.90;;;;;;5115385;28;20046;-68
2023/05/12 12:44:18;;;;;;;6.30;3.95;;;12.00;99.90;;;;;;5114600;28;20112;-69